createdAt,value
2022-09-17T00:01:36.009Z,1.87
2022-09-17T00:04:04.373Z,2.20
2022-09-17T00:06:33.048Z,2.10
2022-09-17T00:08:59.608Z,2.27
2022-09-17T00:11:29.860Z,2.03
2022-09-17T00:13:59.205Z,2.00
2022-09-17T00:16:32.436Z,1.90
2022-09-17T00:19:00.543Z,2.17
2022-09-17T00:21:28.274Z,2.27
2022-09-17T00:24:00.331Z,2.27
2022-09-17T00:26:28.295Z,1.67
2022-09-17T00:28:56.318Z,2.10
2022-09-17T00:31:24.066Z,2.07
2022-09-17T00:33:51.434Z,1.97
2022-09-17T00:36:18.357Z,2.10
2022-09-17T00:38:44.987Z,2.30
2022-09-17T00:41:11.669Z,1.97
2022-09-17T00:43:44.936Z,1.57
2022-09-17T00:46:36.410Z,2.07
2022-09-17T00:49:17.064Z,1.87
2022-09-17T00:52:00.622Z,1.63
2022-09-17T00:54:28.029Z,2.20
2022-09-17T00:56:54.974Z,1.70
2022-09-17T00:59:23.089Z,1.60
2022-09-17T01:01:50.108Z,1.50
2022-09-17T01:04:26.092Z,1.97
2022-09-17T01:07:10.827Z,1.83
2022-09-17T01:09:46.436Z,2.10
2022-09-17T01:12:42.799Z,1.87
2022-09-17T01:15:35.194Z,2.20
2022-09-17T01:18:10.844Z,2.43
2022-09-17T01:20:52.542Z,2.07
2022-09-17T01:23:18.975Z,2.23
2022-09-17T01:26:09.746Z,2.53
2022-09-17T01:28:47.844Z,1.60
2022-09-17T01:31:29.174Z,1.43
2022-09-17T01:34:21.592Z,1.73
2022-09-17T01:37:08.474Z,1.30
2022-09-17T01:39:52.942Z,1.47
2022-09-17T01:42:44.738Z,1.53
2022-09-17T01:45:19.717Z,1.60
2022-09-17T01:47:57.086Z,1.63
2022-09-17T01:50:46.726Z,1.83
2022-09-17T01:53:15.937Z,1.83
2022-09-17T01:55:44.882Z,1.80
2022-09-17T01:58:41.085Z,2.20
2022-09-17T02:01:12.327Z,1.93
2022-09-17T02:03:52.359Z,1.90
2022-09-17T02:06:24.844Z,1.60
2022-09-17T02:08:55.855Z,1.90
2022-09-17T02:11:22.903Z,1.90
2022-09-17T02:14:16.743Z,1.87
2022-09-17T02:16:52.267Z,1.80
2022-09-17T02:19:24.193Z,2.07
2022-09-17T02:21:56.831Z,1.90
2022-09-17T02:24:25.847Z,1.67
2022-09-17T02:27:00.494Z,1.50
2022-09-17T02:29:33.523Z,2.27
2022-09-17T02:32:00.603Z,1.80
2022-09-17T02:34:28.609Z,1.73
2022-09-17T02:36:56.357Z,1.73
2022-09-17T02:39:22.823Z,1.97
2022-09-17T02:42:05.725Z,1.67
2022-09-17T02:44:50.745Z,1.73
2022-09-17T02:47:38.633Z,1.60
2022-09-17T02:50:05.125Z,1.60
2022-09-17T02:52:52.978Z,1.60
2022-09-17T02:55:37.738Z,1.67
2022-09-17T02:58:04.223Z,1.90
2022-09-17T03:00:31.399Z,1.43
2022-09-17T03:03:04.370Z,1.33
2022-09-17T03:05:32.043Z,1.43
2022-09-17T03:08:00.181Z,1.67
2022-09-17T03:10:30.298Z,1.53
2022-09-17T03:12:56.797Z,1.10
2022-09-17T03:15:23.303Z,1.47
2022-09-17T03:17:53.273Z,1.20
2022-09-17T03:20:20.356Z,0.93
2022-09-17T03:22:47.301Z,1.50
2022-09-17T03:25:13.817Z,2.80
2022-09-17T03:27:40.383Z,1.10
2022-09-17T03:30:07.119Z,1.10
2022-09-17T03:32:33.844Z,1.40
2022-09-17T03:35:00.404Z,1.87
2022-09-17T03:37:30.997Z,1.30
2022-09-17T03:39:59.328Z,1.50
2022-09-17T03:42:26.055Z,1.33
2022-09-17T03:44:52.536Z,1.60
2022-09-17T03:47:18.998Z,1.30
2022-09-17T03:49:45.533Z,1.40
2022-09-17T03:52:15.188Z,1.33
2022-09-17T03:54:41.813Z,1.37
2022-09-17T03:57:08.422Z,1.20
2022-09-17T03:59:35.101Z,1.23
2022-09-17T04:02:01.851Z,1.03
2022-09-17T04:04:29.794Z,1.10
2022-09-17T04:06:56.522Z,1.03
2022-09-17T04:09:23.096Z,1.00
2022-09-17T04:11:58.630Z,1.30
2022-09-17T04:14:25.351Z,1.53
2022-09-17T04:16:52.000Z,2.10
2022-09-17T04:19:18.633Z,1.50
2022-09-17T04:21:45.324Z,1.33
2022-09-17T04:24:13.471Z,1.30
2022-09-17T04:26:50.436Z,2.00
2022-09-17T04:29:17.078Z,1.00
2022-09-17T04:31:53.215Z,2.10
2022-09-17T04:34:19.967Z,1.60
2022-09-17T04:36:51.941Z,1.60
2022-09-17T04:39:19.800Z,1.60
2022-09-17T04:41:46.815Z,1.37
2022-09-17T04:44:13.411Z,1.83
2022-09-17T04:46:48.947Z,1.77
2022-09-17T04:49:15.586Z,1.80
2022-09-17T04:51:42.297Z,1.73
2022-09-17T04:54:08.806Z,1.83
2022-09-17T04:56:35.906Z,1.60
2022-09-17T04:59:06.285Z,1.30
2022-09-17T05:01:35.827Z,1.80
2022-09-17T05:04:02.605Z,1.30
2022-09-17T05:06:29.319Z,1.73
2022-09-17T05:08:56.040Z,1.23
2022-09-17T05:11:22.672Z,1.33
2022-09-17T05:13:49.584Z,2.07
2022-09-17T05:16:19.499Z,1.77
2022-09-17T05:18:48.847Z,1.37
2022-09-17T05:21:17.228Z,1.63
2022-09-17T05:23:43.914Z,1.23
2022-09-17T05:26:10.659Z,1.60
2022-09-17T05:28:37.189Z,1.50
2022-09-17T05:31:03.872Z,1.37
2022-09-17T05:33:30.808Z,1.47
2022-09-17T05:36:03.119Z,1.20
2022-09-17T05:38:29.891Z,1.40
2022-09-17T05:40:56.653Z,1.33
2022-09-17T05:43:24.104Z,1.10
2022-09-17T05:45:51.017Z,1.30
2022-09-17T05:48:17.718Z,1.00
2022-09-17T05:50:47.535Z,1.27
2022-09-17T05:53:15.354Z,1.47
2022-09-17T05:55:42.241Z,1.47
2022-09-17T05:58:11.435Z,1.63
2022-09-17T06:00:38.051Z,1.53
2022-09-17T06:03:04.615Z,1.60
2022-09-17T06:05:31.267Z,1.77
2022-09-17T06:07:57.763Z,1.23
2022-09-17T06:10:24.245Z,1.30
2022-09-17T06:12:59.149Z,1.20
2022-09-17T06:15:27.002Z,1.43
2022-09-17T06:17:53.987Z,1.07
2022-09-17T06:20:21.224Z,1.27
2022-09-17T06:22:47.713Z,1.43
2022-09-17T06:25:14.400Z,1.23
2022-09-17T06:27:41.039Z,1.30
2022-09-17T06:30:07.784Z,1.10
2022-09-17T06:32:34.311Z,1.33
2022-09-17T06:35:01.583Z,1.10
2022-09-17T06:37:30.096Z,1.23
2022-09-17T06:39:57.223Z,1.63
2022-09-17T06:42:23.793Z,1.23
2022-09-17T06:44:50.378Z,1.20
2022-09-17T06:47:16.897Z,1.47
2022-09-17T06:49:43.603Z,1.30
2022-09-17T06:52:10.780Z,1.30
2022-09-17T06:54:37.467Z,0.90
2022-09-17T06:57:04.291Z,0.97
2022-09-17T06:59:30.813Z,1.23
2022-09-17T07:01:58.046Z,1.00
2022-09-17T07:04:24.608Z,1.97
2022-09-17T07:06:51.227Z,1.70
2022-09-17T07:09:17.748Z,1.10
2022-09-17T07:11:44.441Z,1.47
2022-09-17T07:14:10.980Z,1.33
2022-09-17T07:16:37.581Z,1.20
2022-09-17T07:19:04.972Z,1.10
2022-09-17T07:21:31.885Z,1.27
2022-09-17T07:23:59.450Z,1.33
2022-09-17T07:26:35.341Z,1.07
2022-09-17T07:29:01.888Z,1.20
2022-09-17T07:31:28.452Z,1.50
2022-09-17T07:33:55.137Z,0.93
2022-09-17T07:36:21.683Z,1.47
2022-09-17T07:38:48.304Z,1.50
2022-09-17T07:41:17.336Z,0.80
2022-09-17T07:43:44.583Z,1.03
2022-09-17T07:46:16.774Z,1.17
2022-09-17T07:48:43.720Z,1.00
2022-09-17T07:51:25.259Z,1.50
2022-09-17T07:53:53.233Z,1.50
2022-09-17T07:56:20.718Z,1.73
2022-09-17T07:58:47.607Z,1.53
2022-09-17T08:01:16.824Z,1.30
2022-09-17T08:03:48.011Z,1.10
2022-09-17T08:06:16.118Z,1.10
2022-09-17T08:08:42.629Z,0.90
2022-09-17T08:11:32.460Z,1.43
2022-09-17T08:14:05.182Z,1.07
2022-09-17T08:16:31.884Z,1.13
2022-09-17T08:18:58.730Z,1.30
2022-09-17T08:21:25.253Z,1.17
2022-09-17T08:23:51.830Z,0.97
2022-09-17T08:26:23.017Z,1.47
2022-09-17T08:28:51.514Z,1.10
2022-09-17T08:31:19.726Z,1.40
2022-09-17T08:33:47.376Z,3.07
2022-09-17T08:36:15.914Z,1.57
2022-09-17T08:38:42.706Z,1.13
2022-09-17T08:41:12.717Z,1.03
2022-09-17T08:44:07.454Z,1.40
2022-09-17T08:46:41.828Z,1.00
2022-09-17T08:49:33.947Z,1.17
2022-09-17T08:52:21.382Z,1.27
2022-09-17T08:54:53.979Z,1.15
2022-09-17T08:57:41.799Z,1.17
2022-09-17T09:00:16.099Z,0.90
2022-09-17T09:02:42.731Z,0.95
2022-09-17T09:05:13.272Z,0.82
2022-09-17T09:07:48.532Z,0.80
2022-09-17T09:10:24.929Z,0.90
2022-09-17T09:12:52.989Z,0.93
2022-09-17T09:15:38.382Z,0.90
2022-09-17T09:18:18.048Z,1.30
2022-09-17T09:20:53.616Z,0.90
2022-09-17T09:23:35.457Z,0.95
2022-09-17T09:26:18.696Z,0.95
2022-09-17T09:29:05.937Z,1.23
2022-09-17T09:31:52.936Z,1.00
2022-09-17T09:34:20.189Z,0.70
2022-09-17T09:36:47.785Z,0.80
2022-09-17T09:39:36.250Z,0.85
2022-09-17T09:42:27.357Z,0.70
2022-09-17T09:44:54.198Z,0.65
2022-09-17T09:47:49.935Z,0.63
2022-09-17T09:51:05.726Z,1.10
2022-09-17T09:53:49.386Z,1.00
2022-09-17T09:56:35.402Z,1.00
2022-09-17T09:59:02.170Z,0.85
2022-09-17T10:01:30.359Z,1.08
2022-09-17T10:03:58.969Z,0.90
2022-09-17T10:06:30.462Z,1.00
2022-09-17T10:09:18.072Z,1.00
2022-09-17T10:12:11.160Z,0.90
2022-09-17T10:14:46.838Z,0.90
2022-09-17T10:17:32.362Z,0.82
2022-09-17T10:20:02.003Z,1.00
2022-09-17T10:22:32.510Z,0.90
2022-09-17T10:25:01.166Z,1.15
2022-09-17T10:27:28.699Z,1.00
2022-09-17T10:30:16.144Z,0.85
2022-09-17T10:32:43.121Z,0.85
2022-09-17T10:35:15.694Z,0.80
2022-09-17T10:37:46.676Z,1.20
2022-09-17T10:40:27.563Z,0.93
2022-09-17T10:43:14.377Z,0.82
2022-09-17T10:45:44.573Z,0.90
2022-09-17T10:48:17.728Z,1.25
2022-09-17T10:50:53.354Z,1.00
2022-09-17T10:53:23.280Z,0.95
2022-09-17T10:56:21.863Z,0.80
2022-09-17T10:59:20.421Z,1.00
2022-09-17T11:01:55.824Z,0.95
2022-09-17T11:04:49.936Z,1.13
2022-09-17T11:07:24.075Z,1.10
2022-09-17T11:10:15.135Z,1.02
2022-09-17T11:13:00.609Z,1.00
2022-09-17T11:15:54.660Z,1.48
2022-09-17T11:18:39.787Z,1.20
2022-09-17T11:21:42.838Z,1.40
2022-09-17T11:24:30.864Z,1.25
2022-09-17T11:27:28.768Z,1.00
2022-09-17T11:29:58.424Z,4.07
2022-09-17T11:32:30.844Z,2.35
2022-09-17T11:35:08.800Z,1.35
2022-09-17T11:37:59.625Z,1.35
2022-09-17T11:40:39.263Z,1.77
2022-09-17T11:44:02.149Z,1.45
2022-09-17T11:46:35.164Z,1.77
2022-09-17T11:49:12.025Z,1.60
2022-09-17T11:51:47.759Z,1.90
2022-09-17T11:54:17.165Z,1.55
2022-09-17T11:56:51.325Z,2.50
2022-09-17T11:59:41.692Z,1.52
2022-09-17T12:02:40.525Z,1.58
2022-09-17T12:05:39.877Z,1.40
2022-09-17T12:08:33.772Z,1.23
2022-09-17T12:11:14.794Z,1.23
2022-09-17T12:13:51.174Z,1.05
2022-09-17T12:16:37.800Z,1.40
2022-09-17T12:19:16.453Z,1.35
2022-09-17T12:21:48.111Z,0.90
2022-09-17T12:24:26.943Z,1.50
2022-09-17T12:27:35.354Z,1.63
2022-09-17T12:30:13.465Z,1.20
2022-09-17T12:33:04.081Z,1.58
2022-09-17T12:36:02.967Z,1.05
2022-09-17T12:38:48.166Z,1.33
2022-09-17T12:41:30.189Z,1.10
2022-09-17T12:44:53.052Z,1.20
2022-09-17T12:47:53.219Z,1.60
2022-09-17T12:50:40.350Z,1.23
2022-09-17T12:53:25.307Z,1.30
2022-09-17T12:59:13.164Z,1.55
2022-09-17T13:02:04.127Z,1.20
2022-09-17T13:05:08.625Z,1.15
2022-09-17T13:08:46.891Z,1.60
2022-09-17T13:11:57.105Z,1.15
2022-09-17T13:15:05.058Z,1.27
2022-09-17T13:18:12.873Z,1.40
2022-09-17T13:21:44.055Z,1.38
2022-09-17T13:24:24.170Z,2.17
2022-09-17T13:39:53.677Z,1.25
2022-09-17T13:53:22.961Z,1.50
2022-09-17T13:56:08.730Z,1.17
2022-09-17T14:06:50.963Z,1.42
2022-09-17T14:09:51.372Z,1.55
2022-09-17T14:12:41.399Z,1.67
2022-09-17T14:15:41.698Z,2.20
2022-09-17T14:18:26.925Z,1.77
2022-09-17T14:20:55.662Z,1.80
2022-09-17T14:23:28.647Z,1.38
2022-09-17T14:25:56.025Z,1.73
2022-09-17T14:28:31.627Z,1.73
2022-09-17T14:30:58.331Z,1.40
2022-09-17T14:33:32.063Z,1.38
2022-09-17T14:36:15.814Z,1.73
2022-09-17T14:38:49.455Z,1.20
2022-09-17T14:41:19.825Z,1.67
2022-09-17T14:44:01.451Z,1.65
2022-09-17T14:46:30.237Z,1.92
2022-09-17T14:49:23.514Z,1.42
2022-09-17T14:51:58.661Z,1.65
2022-09-17T14:54:36.552Z,1.65
2022-09-17T14:57:27.314Z,2.45
2022-09-17T14:59:57.556Z,2.80
2022-09-17T15:02:33.029Z,2.10
2022-09-17T15:05:00.655Z,1.92
2022-09-17T15:07:27.737Z,1.75
2022-09-17T15:09:55.573Z,2.97
2022-09-17T15:12:29.723Z,2.17
2022-09-17T15:14:57.863Z,1.90
2022-09-17T15:17:24.439Z,1.83
2022-09-17T15:19:56.393Z,2.35
2022-09-17T15:23:01.490Z,2.55
2022-09-17T15:25:40.015Z,2.67
2022-09-17T15:28:29.769Z,1.83
2022-09-17T15:30:56.528Z,3.00
2022-09-17T15:33:26.565Z,3.03
2022-09-17T15:36:14.893Z,2.00
2022-09-17T15:38:42.670Z,1.80
2022-09-17T15:41:39.319Z,1.80
2022-09-17T15:44:35.010Z,2.08
2022-09-17T15:47:44.973Z,1.70
2022-09-17T15:50:14.589Z,2.50
2022-09-17T15:53:14.195Z,2.30
2022-09-17T15:55:58.984Z,2.50
2022-09-17T15:58:27.495Z,3.13
2022-09-17T16:01:15.962Z,2.03
2022-09-17T16:03:43.609Z,3.33
2022-09-17T16:06:21.832Z,2.25
2022-09-17T16:08:50.861Z,2.47
2022-09-17T16:11:19.320Z,2.17
2022-09-17T16:13:47.259Z,2.28
2022-09-17T16:16:53.155Z,3.78
2022-09-17T16:19:19.912Z,2.03
2022-09-17T16:21:46.832Z,2.78
2022-09-17T16:24:13.542Z,3.03
2022-09-17T16:26:41.121Z,3.08
2022-09-17T16:29:16.380Z,2.35
2022-09-17T16:31:50.963Z,2.40
2022-09-17T16:34:22.550Z,3.90
2022-09-17T16:36:55.212Z,2.05
2022-09-17T16:39:22.330Z,2.60
2022-09-17T16:42:31.118Z,3.83
2022-09-17T16:45:22.656Z,2.95
2022-09-17T16:50:33.566Z,2.85
2022-09-17T16:53:05.644Z,2.47
2022-09-17T16:58:54.780Z,1.98
2022-09-17T17:01:23.913Z,2.60
2022-09-17T17:03:57.234Z,1.88
2022-09-17T17:06:23.814Z,2.00
2022-09-17T17:08:58.501Z,1.77
2022-09-17T17:11:29.045Z,2.03
2022-09-17T17:14:31.347Z,2.67
2022-09-17T17:17:03.867Z,1.55
2022-09-17T17:19:33.757Z,1.50
2022-09-17T17:22:25.094Z,2.90
2022-09-17T17:24:51.710Z,3.50
2022-09-17T17:27:18.482Z,2.00
2022-09-17T17:29:50.023Z,2.08
2022-09-17T17:37:44.096Z,2.05
2022-09-17T18:15:57.309Z,1.48
2022-09-17T19:47:47.435Z,1.35
2022-09-17T19:50:14.281Z,1.35
2022-09-17T19:52:41.025Z,1.35
2022-09-17T19:55:12.794Z,1.08
2022-09-17T19:57:40.319Z,1.00
2022-09-17T20:00:08.287Z,1.35
2022-09-17T20:02:34.880Z,1.35
2022-09-17T20:05:01.399Z,1.50
2022-09-17T20:07:29.127Z,1.40
2022-09-17T20:09:56.058Z,1.20
2022-09-17T20:12:24.177Z,1.30
2022-09-17T20:14:50.696Z,1.48
2022-09-17T20:17:17.783Z,1.38
2022-09-17T20:19:44.305Z,1.13
2022-09-17T20:22:10.891Z,0.90
2022-09-17T20:24:37.891Z,1.38
2022-09-17T20:27:04.585Z,1.17
2022-09-17T20:29:31.129Z,1.10
2022-09-17T20:31:57.635Z,1.20
2022-09-17T20:34:24.113Z,1.00
2022-09-17T20:36:58.235Z,1.50
2022-09-17T20:39:37.112Z,1.63
2022-09-17T20:42:03.848Z,1.15
2022-09-17T20:44:30.416Z,1.60
2022-09-17T20:46:57.106Z,1.67
2022-09-17T20:49:23.701Z,1.58
2022-09-17T20:51:50.275Z,1.60
2022-09-17T20:54:16.861Z,3.00
2022-09-17T20:56:43.682Z,1.83
2022-09-17T20:59:18.891Z,1.45
2022-09-17T21:01:47.406Z,1.20
2022-09-17T21:04:16.530Z,1.63
2022-09-17T21:06:43.886Z,1.40
2022-09-17T21:09:20.822Z,1.27
2022-09-17T21:11:48.495Z,1.40
2022-09-17T21:14:15.983Z,1.40
2022-09-17T21:16:43.446Z,1.40
2022-09-17T21:19:12.838Z,0.95
2022-09-17T21:21:39.605Z,1.00
2022-09-17T21:24:07.460Z,1.13
2022-09-17T21:26:34.717Z,1.10
2022-09-17T21:29:02.307Z,1.83
2022-09-17T21:31:32.900Z,1.10
2022-09-17T21:34:02.318Z,1.48
2022-09-17T21:36:33.861Z,1.20
2022-09-17T21:39:07.892Z,1.60
2022-09-17T21:41:37.569Z,1.48
2022-09-17T21:44:06.638Z,1.58
2022-09-17T21:46:35.137Z,1.70
2022-09-17T21:49:02.444Z,2.17
2022-09-17T21:51:37.805Z,1.50
2022-09-17T21:54:07.606Z,1.40
2022-09-17T21:56:34.417Z,1.30
2022-09-17T21:59:04.477Z,1.63
2022-09-17T22:01:39.961Z,1.92
2022-09-17T22:04:10.715Z,1.63
2022-09-17T22:06:38.248Z,1.70
2022-09-17T22:09:07.624Z,1.80
2022-09-17T22:11:37.001Z,1.50
2022-09-17T22:14:11.217Z,1.92
2022-09-17T22:16:40.793Z,2.33
2022-09-17T22:19:08.822Z,1.25
2022-09-17T22:21:37.559Z,1.90
2022-09-17T22:24:05.533Z,2.58
2022-09-17T22:26:33.998Z,1.53
2022-09-17T22:29:02.408Z,1.37
2022-09-17T22:31:29.202Z,1.92
2022-09-17T22:33:55.758Z,1.15
2022-09-17T22:36:25.203Z,1.85
2022-09-17T22:38:54.331Z,1.15
2022-09-17T22:41:23.627Z,1.85
2022-09-17T22:44:01.421Z,1.70
2022-09-17T22:46:30.701Z,1.60
2022-09-17T22:48:58.140Z,2.20
2022-09-17T22:51:26.606Z,1.15
2022-09-17T22:53:53.411Z,1.98
2022-09-17T22:56:21.814Z,1.70
2022-09-17T22:58:48.365Z,2.13
2022-09-17T23:01:17.845Z,2.07
2022-09-17T23:03:45.895Z,1.92
2022-09-17T23:06:17.477Z,1.30
2022-09-17T23:08:44.211Z,1.23
2022-09-17T23:11:20.765Z,1.47
2022-09-17T23:13:48.282Z,1.97
2022-09-17T23:16:15.154Z,1.40
2022-09-17T23:18:42.168Z,1.67
2022-09-17T23:21:14.726Z,1.17
2022-09-17T23:23:43.258Z,1.85
2022-09-17T23:26:16.280Z,1.50
2022-09-17T23:28:43.213Z,1.92
2022-09-17T23:31:24.796Z,1.92
2022-09-17T23:33:52.226Z,1.80
2022-09-17T23:36:24.225Z,1.70
2022-09-17T23:38:50.965Z,1.90
2022-09-17T23:41:26.897Z,1.87
2022-09-17T23:43:56.299Z,2.10
2022-09-17T23:46:24.730Z,1.90
2022-09-17T23:48:53.648Z,1.90
2022-09-17T23:51:21.699Z,1.70
2022-09-17T23:53:48.239Z,1.73
2022-09-17T23:56:21.375Z,1.53
2022-09-17T23:58:48.719Z,2.00
